createdAt,value
2023-04-10T00:04:59.465Z,7.30
2023-04-10T00:12:00.727Z,7.20
2023-04-10T00:19:01.170Z,7.20
2023-04-10T00:26:01.882Z,7.10
2023-04-10T00:33:01.900Z,7.10
2023-04-10T00:40:02.929Z,7.00
2023-04-10T00:47:07.241Z,7.10
2023-04-10T00:54:10.188Z,7.10
2023-04-10T01:01:10.363Z,7.00
2023-04-10T01:08:54.551Z,7.00
2023-04-10T01:16:09.275Z,6.90
2023-04-10T01:23:18.747Z,6.80
2023-04-10T01:30:22.891Z,6.80
2023-04-10T01:37:27.456Z,6.70
2023-04-10T01:44:30.539Z,6.70
2023-04-10T01:51:32.634Z,6.60
2023-04-10T01:58:35.870Z,6.50
2023-04-10T02:05:46.778Z,6.50
2023-04-10T02:12:53.847Z,6.50
2023-04-10T02:19:58.096Z,6.40
2023-04-10T02:26:58.463Z,6.40
2023-04-10T02:33:59.009Z,6.40
2023-04-10T02:40:59.444Z,6.30
2023-04-10T02:48:00.005Z,6.30
2023-04-10T02:55:01.531Z,6.30
2023-04-10T03:02:07.453Z,6.20
2023-04-10T03:09:10.882Z,6.10
2023-04-10T03:16:11.228Z,6.10
2023-04-10T03:23:12.405Z,6.10
2023-04-10T03:30:12.870Z,6.00
2023-04-10T03:37:15.540Z,6.10
2023-04-10T03:44:17.817Z,6.10
2023-04-10T03:51:18.504Z,6.10
2023-04-10T03:58:19.613Z,6.10
2023-04-10T04:05:20.673Z,6.10
2023-04-10T04:12:40.297Z,6.10
2023-04-10T04:19:49.754Z,6.20
2023-04-10T04:26:59.629Z,6.20
2023-04-10T04:34:16.360Z,6.30
2023-04-10T04:41:24.230Z,6.30
2023-04-10T04:48:42.623Z,6.50
2023-04-10T04:56:06.009Z,6.60
2023-04-10T05:03:21.974Z,6.90
2023-04-10T05:10:55.299Z,7.10
2023-04-10T05:18:11.420Z,7.20
2023-04-10T05:25:30.640Z,7.40
2023-04-10T05:32:45.946Z,7.50
2023-04-10T05:40:21.514Z,7.70
2023-04-10T05:47:44.743Z,7.90
2023-04-10T05:55:14.530Z,8.00
2023-04-10T06:02:16.377Z,8.20
2023-04-10T06:09:16.938Z,8.40
2023-04-10T06:16:17.517Z,8.60
2023-04-10T06:23:19.621Z,8.70
2023-04-10T06:30:20.183Z,8.90
2023-04-10T06:37:26.659Z,9.00
2023-04-10T06:44:27.181Z,9.10
2023-04-10T06:51:27.805Z,9.40
2023-04-10T06:58:27.882Z,9.60
2023-04-10T07:05:28.246Z,9.80
2023-04-10T07:12:29.304Z,10.00
2023-04-10T07:19:30.290Z,10.30
2023-04-10T07:26:30.701Z,10.50
2023-04-10T07:33:31.403Z,10.80
2023-04-10T07:40:31.992Z,11.00
2023-04-10T07:47:32.581Z,11.20
2023-04-10T07:54:34.285Z,11.40
2023-04-10T08:01:34.815Z,11.50
2023-04-10T08:08:39.767Z,11.60
2023-04-10T08:15:40.295Z,11.80
2023-04-10T08:22:40.903Z,12.00
2023-04-10T08:29:41.371Z,12.20
2023-04-10T08:36:41.811Z,12.40
2023-04-10T08:43:43.506Z,12.60
2023-04-10T08:50:46.346Z,12.90
2023-04-10T08:57:54.339Z,13.10
2023-04-10T09:05:03.945Z,13.30
2023-04-10T09:12:05.262Z,13.50
2023-04-10T09:19:06.475Z,13.70
2023-04-10T09:26:25.487Z,13.80
2023-04-10T09:33:27.824Z,14.10
2023-04-10T09:40:28.077Z,14.30
2023-04-10T09:47:28.953Z,14.50
2023-04-10T09:54:37.350Z,14.70
2023-04-10T10:01:39.436Z,14.80
2023-04-10T10:08:40.232Z,15.00
2023-04-10T10:15:51.931Z,15.30
2023-04-10T10:22:53.624Z,15.50
2023-04-10T10:29:54.961Z,15.70
2023-04-10T10:36:55.344Z,15.80
2023-04-10T10:44:07.898Z,16.10
2023-04-10T10:51:08.297Z,16.20
2023-04-10T10:58:11.368Z,16.40
2023-04-10T11:05:57.016Z,16.70
2023-04-10T11:13:17.981Z,16.80
2023-04-10T11:20:21.769Z,16.90
2023-04-10T11:27:46.204Z,17.10
2023-04-10T11:34:46.269Z,17.20
2023-04-10T11:41:48.340Z,17.20
2023-04-10T11:48:52.685Z,17.30
2023-04-10T11:55:53.414Z,17.40
2023-04-10T12:02:54.101Z,17.50
2023-04-10T12:09:58.306Z,17.50
2023-04-10T12:16:59.788Z,17.40
2023-04-10T12:24:00.107Z,17.40
2023-04-10T12:31:00.445Z,17.50
2023-04-10T12:38:00.773Z,17.50
2023-04-10T12:45:01.414Z,17.60
2023-04-10T12:52:01.735Z,17.80
2023-04-10T12:59:08.374Z,18.00
2023-04-10T13:06:08.846Z,18.40
2023-04-10T13:13:11.842Z,18.50
2023-04-10T13:20:13.281Z,18.40
2023-04-10T13:27:13.819Z,18.40
2023-04-10T13:34:14.062Z,18.40
2023-04-10T13:41:14.337Z,18.30
2023-04-10T13:48:17.570Z,18.50
2023-04-10T13:55:18.950Z,18.80
2023-04-10T14:02:19.731Z,18.90
2023-04-10T14:09:21.221Z,18.80
2023-04-10T14:16:21.501Z,18.80
2023-04-10T14:23:22.513Z,19.00
2023-04-10T14:30:22.957Z,19.00
2023-04-10T14:37:23.435Z,19.10
2023-04-10T14:44:23.826Z,19.20
2023-04-10T14:51:24.447Z,19.30
2023-04-10T14:58:24.925Z,19.50
2023-04-10T15:05:26.254Z,20.00
2023-04-10T15:12:26.651Z,20.20
2023-04-10T15:19:27.048Z,20.00
2023-04-10T15:26:27.351Z,19.60
2023-04-10T15:33:27.624Z,19.10
2023-04-10T15:40:28.534Z,18.70
2023-04-10T15:47:29.102Z,18.50
2023-04-10T15:54:29.450Z,18.30
2023-04-10T16:01:29.866Z,18.10
2023-04-10T16:08:30.470Z,18.00
2023-04-10T16:15:35.238Z,17.80
2023-04-10T16:22:36.435Z,17.60
2023-04-10T16:29:36.551Z,17.50
2023-04-10T16:36:37.639Z,17.20
2023-04-10T16:43:37.734Z,17.00
2023-04-10T16:50:38.165Z,16.70
2023-04-10T16:57:38.593Z,16.30
2023-04-10T17:04:39.029Z,16.00
2023-04-10T17:11:39.435Z,15.70
2023-04-10T17:18:40.829Z,15.40
2023-04-10T17:25:41.884Z,15.20
2023-04-10T17:32:43.236Z,15.10
2023-04-10T17:39:43.705Z,15.00
2023-04-10T17:46:44.067Z,14.90
2023-04-10T17:53:46.142Z,14.80
2023-04-10T18:00:46.440Z,14.70
2023-04-10T18:07:47.177Z,14.70
2023-04-10T18:14:48.446Z,14.80
2023-04-10T18:21:49.258Z,14.80
2023-04-10T18:28:49.454Z,14.80
2023-04-10T18:35:55.766Z,14.90
2023-04-10T18:42:56.150Z,14.90
2023-04-10T18:49:56.745Z,14.90
2023-04-10T18:56:57.380Z,15.00
2023-04-10T19:03:58.308Z,15.00
2023-04-10T19:10:58.771Z,14.90
2023-04-10T19:17:59.157Z,14.50
2023-04-10T19:24:59.446Z,14.00
2023-04-10T19:31:59.750Z,13.60
2023-04-10T19:39:00.477Z,13.30
2023-04-10T19:46:01.000Z,13.00
2023-04-10T19:53:01.538Z,12.60
2023-04-10T20:00:02.118Z,12.30
2023-04-10T20:07:12.389Z,12.10
2023-04-10T20:14:12.758Z,11.80
2023-04-10T20:21:12.971Z,11.50
2023-04-10T20:28:13.425Z,11.20
2023-04-10T20:35:13.950Z,10.90
2023-04-10T20:42:14.526Z,10.70
2023-04-10T20:49:15.808Z,10.50
2023-04-10T20:56:16.230Z,10.40
2023-04-10T21:03:16.813Z,10.40
2023-04-10T21:10:17.163Z,10.40
2023-04-10T21:17:19.609Z,10.40
2023-04-10T21:24:20.210Z,10.40
2023-04-10T21:31:20.846Z,10.30
2023-04-10T21:38:23.334Z,10.30
2023-04-10T21:45:23.672Z,10.30
2023-04-10T21:52:23.896Z,10.30
2023-04-10T21:59:25.454Z,10.30
2023-04-10T22:06:26.577Z,10.20
2023-04-10T22:13:30.970Z,10.20
2023-04-10T22:20:31.528Z,10.10
2023-04-10T22:27:33.118Z,10.10
2023-04-10T22:34:33.678Z,10.10
2023-04-10T22:41:34.105Z,10.10
2023-04-10T22:48:34.558Z,10.10
2023-04-10T22:55:38.010Z,10.00
2023-04-10T23:02:38.675Z,10.00
2023-04-10T23:09:39.058Z,10.00
2023-04-10T23:16:39.641Z,10.00
2023-04-10T23:23:40.130Z,10.00
2023-04-10T23:30:42.076Z,10.00
2023-04-10T23:37:42.411Z,9.90
2023-04-10T23:44:42.945Z,9.90
2023-04-10T23:51:44.835Z,9.90
2023-04-10T23:58:45.395Z,9.90
